sensor_id;sensor_type;location;lat;lon;timestamp;P1;durP1;ratioP1;P2;durP2;ratioP2
24635;SDS011;12772;49.794;10.024;2024-03-29T00:02:49;1.23;;;1.13;;
24635;SDS011;12772;49.794;10.024;2024-03-29T00:06:50;2.05;;;0.98;;
24635;SDS011;12772;49.794;10.024;2024-03-29T00:10:51;1.63;;;1.15;;
24635;SDS011;12772;49.794;10.024;2024-03-29T00:14:52;1.13;;;1.08;;
24635;SDS011;12772;49.794;10.024;2024-03-29T00:18:53;1.00;;;1.00;;
24635;SDS011;12772;49.794;10.024;2024-03-29T00:22:55;0.80;;;0.80;;
24635;SDS011;12772;49.794;10.024;2024-03-29T00:26:56;1.83;;;1.05;;
24635;SDS011;12772;49.794;10.024;2024-03-29T00:30:57;1.52;;;1.00;;
24635;SDS011;12772;49.794;10.024;2024-03-29T00:34:58;1.95;;;1.10;;
24635;SDS011;12772;49.794;10.024;2024-03-29T00:38:59;1.70;;;1.27;;
24635;SDS011;12772;49.794;10.024;2024-03-29T00:43:00;2.47;;;1.20;;
24635;SDS011;12772;49.794;10.024;2024-03-29T00:47:01;1.08;;;0.95;;
24635;SDS011;12772;49.794;10.024;2024-03-29T00:51:02;1.98;;;0.90;;
24635;SDS011;12772;49.794;10.024;2024-03-29T00:55:03;0.95;;;0.95;;
24635;SDS011;12772;49.794;10.024;2024-03-29T00:59:05;1.70;;;0.95;;
24635;SDS011;12772;49.794;10.024;2024-03-29T01:03:06;2.00;;;1.13;;
24635;SDS011;12772;49.794;10.024;2024-03-29T01:07:07;1.00;;;0.90;;
24635;SDS011;12772;49.794;10.024;2024-03-29T01:11:08;2.10;;;1.35;;
24635;SDS011;12772;49.794;10.024;2024-03-29T01:15:09;1.52;;;0.88;;
24635;SDS011;12772;49.794;10.024;2024-03-29T01:19:11;1.98;;;1.08;;
24635;SDS011;12772;49.794;10.024;2024-03-29T01:23:12;2.53;;;1.05;;
24635;SDS011;12772;49.794;10.024;2024-03-29T01:27:13;1.60;;;0.90;;
24635;SDS011;12772;49.794;10.024;2024-03-29T01:31:14;1.05;;;1.00;;
24635;SDS011;12772;49.794;10.024;2024-03-29T01:35:15;1.30;;;1.20;;
24635;SDS011;12772;49.794;10.024;2024-03-29T01:39:16;4.07;;;1.77;;
24635;SDS011;12772;49.794;10.024;2024-03-29T01:43:17;1.05;;;1.02;;
24635;SDS011;12772;49.794;10.024;2024-03-29T01:47:19;2.08;;;1.27;;
24635;SDS011;12772;49.794;10.024;2024-03-29T01:51:21;1.58;;;1.20;;
24635;SDS011;12772;49.794;10.024;2024-03-29T01:55:25;1.55;;;0.90;;
24635;SDS011;12772;49.794;10.024;2024-03-29T01:59:27;1.52;;;0.90;;
24635;SDS011;12772;49.794;10.024;2024-03-29T02:03:30;1.30;;;1.17;;
24635;SDS011;12772;49.794;10.024;2024-03-29T02:07:32;1.70;;;1.27;;
24635;SDS011;12772;49.794;10.024;2024-03-29T02:11:35;1.15;;;1.00;;
24635;SDS011;12772;49.794;10.024;2024-03-29T02:15:39;1.02;;;0.93;;
24635;SDS011;12772;49.794;10.024;2024-03-29T02:19:41;1.00;;;1.00;;
24635;SDS011;12772;49.794;10.024;2024-03-29T02:23:44;1.55;;;1.13;;
24635;SDS011;12772;49.794;10.024;2024-03-29T02:27:50;2.15;;;1.38;;
24635;SDS011;12772;49.794;10.024;2024-03-29T02:31:53;0.95;;;0.93;;
24635;SDS011;12772;49.794;10.024;2024-03-29T02:35:55;2.78;;;1.00;;
24635;SDS011;12772;49.794;10.024;2024-03-29T02:39:57;1.50;;;1.27;;
24635;SDS011;12772;49.794;10.024;2024-03-29T02:43:59;2.92;;;1.00;;
24635;SDS011;12772;49.794;10.024;2024-03-29T02:48:01;1.25;;;1.10;;
24635;SDS011;12772;49.794;10.024;2024-03-29T02:52:03;2.85;;;1.30;;
24635;SDS011;12772;49.794;10.024;2024-03-29T02:56:05;1.75;;;1.20;;
24635;SDS011;12772;49.794;10.024;2024-03-29T03:00:08;2.25;;;1.30;;
24635;SDS011;12772;49.794;10.024;2024-03-29T03:04:10;1.42;;;1.33;;
24635;SDS011;12772;49.794;10.024;2024-03-29T03:08:12;1.95;;;1.15;;
24635;SDS011;12772;49.794;10.024;2024-03-29T03:12:32;2.03;;;1.33;;
24635;SDS011;12772;49.794;10.024;2024-03-29T03:16:34;2.45;;;1.30;;
24635;SDS011;12772;49.794;10.024;2024-03-29T03:20:36;1.85;;;1.17;;
24635;SDS011;12772;49.794;10.024;2024-03-29T03:24:38;1.27;;;1.17;;
24635;SDS011;12772;49.794;10.024;2024-03-29T03:28:40;1.73;;;1.13;;
24635;SDS011;12772;49.794;10.024;2024-03-29T03:32:42;1.50;;;1.40;;
24635;SDS011;12772;49.794;10.024;2024-03-29T03:36:44;1.05;;;1.05;;
24635;SDS011;12772;49.794;10.024;2024-03-29T03:40:46;1.17;;;1.13;;
24635;SDS011;12772;49.794;10.024;2024-03-29T03:44:48;1.63;;;1.30;;
24635;SDS011;12772;49.794;10.024;2024-03-29T03:48:49;1.33;;;1.23;;
24635;SDS011;12772;49.794;10.024;2024-03-29T03:52:51;1.23;;;1.15;;
24635;SDS011;12772;49.794;10.024;2024-03-29T03:56:53;1.65;;;1.15;;
24635;SDS011;12772;49.794;10.024;2024-03-29T04:00:55;1.70;;;1.25;;
24635;SDS011;12772;49.794;10.024;2024-03-29T04:04:57;1.70;;;1.40;;
24635;SDS011;12772;49.794;10.024;2024-03-29T04:08:59;1.35;;;1.25;;
24635;SDS011;12772;49.794;10.024;2024-03-29T04:13:01;2.05;;;1.40;;
24635;SDS011;12772;49.794;10.024;2024-03-29T04:17:03;1.90;;;1.30;;
24635;SDS011;12772;49.794;10.024;2024-03-29T04:21:05;1.38;;;1.27;;
24635;SDS011;12772;49.794;10.024;2024-03-29T04:25:07;1.20;;;1.10;;
24635;SDS011;12772;49.794;10.024;2024-03-29T04:29:09;0.93;;;0.93;;
24635;SDS011;12772;49.794;10.024;2024-03-29T04:33:11;1.25;;;1.15;;
24635;SDS011;12772;49.794;10.024;2024-03-29T04:37:13;1.98;;;1.30;;
24635;SDS011;12772;49.794;10.024;2024-03-29T04:41:16;2.03;;;1.40;;
24635;SDS011;12772;49.794;10.024;2024-03-29T04:45:18;1.52;;;1.25;;
24635;SDS011;12772;49.794;10.024;2024-03-29T04:49:21;1.17;;;1.10;;
24635;SDS011;12772;49.794;10.024;2024-03-29T04:53:30;2.70;;;1.35;;
24635;SDS011;12772;49.794;10.024;2024-03-29T04:57:32;1.10;;;1.05;;
24635;SDS011;12772;49.794;10.024;2024-03-29T05:01:34;2.13;;;1.20;;
24635;SDS011;12772;49.794;10.024;2024-03-29T05:05:36;1.27;;;1.20;;
24635;SDS011;12772;49.794;10.024;2024-03-29T05:09:38;1.08;;;0.90;;
24635;SDS011;12772;49.794;10.024;2024-03-29T05:13:41;1.10;;;1.00;;
24635;SDS011;12772;49.794;10.024;2024-03-29T05:17:43;0.80;;;0.80;;
24635;SDS011;12772;49.794;10.024;2024-03-29T05:21:45;2.75;;;2.40;;
24635;SDS011;12772;49.794;10.024;2024-03-29T05:25:47;1.90;;;1.80;;
24635;SDS011;12772;49.794;10.024;2024-03-29T05:29:49;1.10;;;1.10;;
24635;SDS011;12772;49.794;10.024;2024-03-29T05:33:52;1.40;;;1.30;;
24635;SDS011;12772;49.794;10.024;2024-03-29T05:37:54;1.55;;;1.10;;
24635;SDS011;12772;49.794;10.024;2024-03-29T05:41:56;1.23;;;0.98;;
24635;SDS011;12772;49.794;10.024;2024-03-29T05:45:59;1.27;;;1.17;;
24635;SDS011;12772;49.794;10.024;2024-03-29T05:50:02;2.58;;;1.05;;
24635;SDS011;12772;49.794;10.024;2024-03-29T05:54:04;1.10;;;1.10;;
24635;SDS011;12772;49.794;10.024;2024-03-29T05:58:06;1.05;;;1.05;;
24635;SDS011;12772;49.794;10.024;2024-03-29T06:02:08;0.95;;;0.95;;
24635;SDS011;12772;49.794;10.024;2024-03-29T06:06:10;0.90;;;0.88;;
24635;SDS011;12772;49.794;10.024;2024-03-29T06:10:18;0.90;;;0.90;;
24635;SDS011;12772;49.794;10.024;2024-03-29T06:14:20;0.80;;;0.80;;
24635;SDS011;12772;49.794;10.024;2024-03-29T06:18:39;0.77;;;0.77;;
24635;SDS011;12772;49.794;10.024;2024-03-29T06:22:41;0.90;;;0.90;;
24635;SDS011;12772;49.794;10.024;2024-03-29T06:26:43;0.80;;;0.80;;
24635;SDS011;12772;49.794;10.024;2024-03-29T06:30:45;1.00;;;1.00;;
24635;SDS011;12772;49.794;10.024;2024-03-29T06:34:47;1.45;;;0.95;;
24635;SDS011;12772;49.794;10.024;2024-03-29T06:38:49;2.60;;;0.95;;
24635;SDS011;12772;49.794;10.024;2024-03-29T06:42:51;1.10;;;1.10;;
24635;SDS011;12772;49.794;10.024;2024-03-29T06:46:56;0.82;;;0.82;;
24635;SDS011;12772;49.794;10.024;2024-03-29T06:50:58;1.00;;;0.70;;
24635;SDS011;12772;49.794;10.024;2024-03-29T06:55:00;1.00;;;1.00;;
24635;SDS011;12772;49.794;10.024;2024-03-29T06:59:02;1.73;;;0.85;;
24635;SDS011;12772;49.794;10.024;2024-03-29T07:03:04;0.75;;;0.75;;
24635;SDS011;12772;49.794;10.024;2024-03-29T07:07:06;0.98;;;0.98;;
24635;SDS011;12772;49.794;10.024;2024-03-29T07:11:08;3.25;;;1.60;;
24635;SDS011;12772;49.794;10.024;2024-03-29T07:15:11;6.68;;;5.97;;
24635;SDS011;12772;49.794;10.024;2024-03-29T07:19:13;2.08;;;1.95;;
24635;SDS011;12772;49.794;10.024;2024-03-29T07:23:16;1.65;;;1.40;;
24635;SDS011;12772;49.794;10.024;2024-03-29T07:27:19;1.70;;;1.25;;
24635;SDS011;12772;49.794;10.024;2024-03-29T07:31:21;1.17;;;0.90;;
24635;SDS011;12772;49.794;10.024;2024-03-29T07:35:23;1.00;;;1.00;;
24635;SDS011;12772;49.794;10.024;2024-03-29T07:39:25;1.02;;;0.93;;
24635;SDS011;12772;49.794;10.024;2024-03-29T07:43:34;0.95;;;0.95;;
24635;SDS011;12772;49.794;10.024;2024-03-29T07:47:40;0.75;;;0.70;;
24635;SDS011;12772;49.794;10.024;2024-03-29T07:51:42;0.82;;;0.82;;
24635;SDS011;12772;49.794;10.024;2024-03-29T07:55:44;1.13;;;0.88;;
24635;SDS011;12772;49.794;10.024;2024-03-29T07:59:46;1.13;;;1.10;;
24635;SDS011;12772;49.794;10.024;2024-03-29T08:03:50;2.63;;;2.30;;
24635;SDS011;12772;49.794;10.024;2024-03-29T08:07:54;2.17;;;1.67;;
24635;SDS011;12772;49.794;10.024;2024-03-29T08:11:56;2.60;;;1.02;;
24635;SDS011;12772;49.794;10.024;2024-03-29T08:15:58;0.75;;;0.75;;
24635;SDS011;12772;49.794;10.024;2024-03-29T08:20:01;1.88;;;0.80;;
24635;SDS011;12772;49.794;10.024;2024-03-29T08:24:03;0.70;;;0.70;;
24635;SDS011;12772;49.794;10.024;2024-03-29T08:28:05;0.73;;;0.73;;
24635;SDS011;12772;49.794;10.024;2024-03-29T08:32:07;0.77;;;0.77;;
24635;SDS011;12772;49.794;10.024;2024-03-29T08:36:10;0.90;;;0.90;;
24635;SDS011;12772;49.794;10.024;2024-03-29T08:40:12;1.35;;;1.30;;
24635;SDS011;12772;49.794;10.024;2024-03-29T08:44:14;2.55;;;1.73;;
24635;SDS011;12772;49.794;10.024;2024-03-29T08:48:16;1.65;;;1.55;;
24635;SDS011;12772;49.794;10.024;2024-03-29T08:52:18;0.93;;;0.93;;
24635;SDS011;12772;49.794;10.024;2024-03-29T08:56:21;0.75;;;0.75;;
24635;SDS011;12772;49.794;10.024;2024-03-29T09:00:23;1.45;;;1.35;;
24635;SDS011;12772;49.794;10.024;2024-03-29T09:04:29;1.10;;;0.95;;
24635;SDS011;12772;49.794;10.024;2024-03-29T09:08:31;1.00;;;1.00;;
24635;SDS011;12772;49.794;10.024;2024-03-29T09:12:33;1.17;;;1.10;;
24635;SDS011;12772;49.794;10.024;2024-03-29T09:16:35;2.20;;;1.40;;
24635;SDS011;12772;49.794;10.024;2024-03-29T09:20:37;1.63;;;1.50;;
24635;SDS011;12772;49.794;10.024;2024-03-29T09:24:39;1.38;;;1.27;;
24635;SDS011;12772;49.794;10.024;2024-03-29T09:28:41;4.28;;;3.88;;
24635;SDS011;12772;49.794;10.024;2024-03-29T09:32:43;1.73;;;1.63;;
24635;SDS011;12772;49.794;10.024;2024-03-29T09:36:45;1.58;;;1.48;;
24635;SDS011;12772;49.794;10.024;2024-03-29T09:40:49;1.35;;;1.35;;
24635;SDS011;12772;49.794;10.024;2024-03-29T09:45:05;1.65;;;1.48;;
24635;SDS011;12772;49.794;10.024;2024-03-29T09:49:08;1.10;;;1.10;;
24635;SDS011;12772;49.794;10.024;2024-03-29T09:53:12;1.90;;;1.27;;
24635;SDS011;12772;49.794;10.024;2024-03-29T09:57:14;1.65;;;1.00;;
24635;SDS011;12772;49.794;10.024;2024-03-29T10:01:17;1.10;;;1.00;;
24635;SDS011;12772;49.794;10.024;2024-03-29T10:05:20;1.02;;;1.02;;
24635;SDS011;12772;49.794;10.024;2024-03-29T10:09:22;2.08;;;1.42;;
24635;SDS011;12772;49.794;10.024;2024-03-29T10:13:28;1.35;;;1.20;;
24635;SDS011;12772;49.794;10.024;2024-03-29T10:17:30;1.30;;;1.20;;
24635;SDS011;12772;49.794;10.024;2024-03-29T10:21:32;3.90;;;1.73;;
24635;SDS011;12772;49.794;10.024;2024-03-29T10:25:36;2.08;;;1.98;;
24635;SDS011;12772;49.794;10.024;2024-03-29T10:29:39;1.65;;;1.55;;
24635;SDS011;12772;49.794;10.024;2024-03-29T10:33:42;1.42;;;1.30;;
24635;SDS011;12772;49.794;10.024;2024-03-29T10:37:45;1.67;;;1.58;;
24635;SDS011;12772;49.794;10.024;2024-03-29T10:41:47;1.58;;;1.48;;
24635;SDS011;12772;49.794;10.024;2024-03-29T10:45:51;2.38;;;1.73;;
24635;SDS011;12772;49.794;10.024;2024-03-29T10:49:55;2.22;;;1.83;;
24635;SDS011;12772;49.794;10.024;2024-03-29T10:53:59;1.60;;;1.50;;
24635;SDS011;12772;49.794;10.024;2024-03-29T10:58:05;1.92;;;1.73;;
24635;SDS011;12772;49.794;10.024;2024-03-29T11:02:11;3.00;;;1.50;;
24635;SDS011;12772;49.794;10.024;2024-03-29T11:06:14;2.90;;;2.38;;
24635;SDS011;12772;49.794;10.024;2024-03-29T11:10:19;3.00;;;2.33;;
24635;SDS011;12772;49.794;10.024;2024-03-29T11:14:27;3.85;;;1.73;;
24635;SDS011;12772;49.794;10.024;2024-03-29T11:18:37;2.67;;;2.17;;
24635;SDS011;12772;49.794;10.024;2024-03-29T11:22:40;2.50;;;2.00;;
24635;SDS011;12772;49.794;10.024;2024-03-29T11:26:42;4.28;;;2.50;;
24635;SDS011;12772;49.794;10.024;2024-03-29T11:30:47;2.40;;;2.20;;
24635;SDS011;12772;49.794;10.024;2024-03-29T11:34:50;2.28;;;2.08;;
24635;SDS011;12772;49.794;10.024;2024-03-29T11:38:53;2.55;;;2.08;;
24635;SDS011;12772;49.794;10.024;2024-03-29T11:42:58;1.50;;;1.40;;
24635;SDS011;12772;49.794;10.024;2024-03-29T11:47:00;3.45;;;1.60;;
24635;SDS011;12772;49.794;10.024;2024-03-29T11:51:07;1.45;;;1.30;;
24635;SDS011;12772;49.794;10.024;2024-03-29T11:55:11;2.30;;;1.67;;
24635;SDS011;12772;49.794;10.024;2024-03-29T11:59:13;1.38;;;1.27;;
24635;SDS011;12772;49.794;10.024;2024-03-29T12:03:16;2.13;;;1.20;;
24635;SDS011;12772;49.794;10.024;2024-03-29T12:07:20;2.58;;;1.33;;
24635;SDS011;12772;49.794;10.024;2024-03-29T12:11:22;0.98;;;0.98;;
24635;SDS011;12772;49.794;10.024;2024-03-29T12:15:25;1.80;;;1.70;;
24635;SDS011;12772;49.794;10.024;2024-03-29T12:19:30;3.63;;;1.70;;
24635;SDS011;12772;49.794;10.024;2024-03-29T12:23:36;3.50;;;1.70;;
24635;SDS011;12772;49.794;10.024;2024-03-29T12:27:38;3.17;;;1.80;;
24635;SDS011;12772;49.794;10.024;2024-03-29T12:31:40;2.50;;;1.40;;
24635;SDS011;12772;49.794;10.024;2024-03-29T12:35:42;2.97;;;2.50;;
24635;SDS011;12772;49.794;10.024;2024-03-29T12:39:47;2.45;;;2.15;;
24635;SDS011;12772;49.794;10.024;2024-03-29T12:43:52;2.13;;;2.00;;
24635;SDS011;12772;49.794;10.024;2024-03-29T12:47:54;3.45;;;3.08;;
24635;SDS011;12772;49.794;10.024;2024-03-29T12:51:56;3.47;;;3.17;;
24635;SDS011;12772;49.794;10.024;2024-03-29T12:55:58;1.73;;;1.63;;
24635;SDS011;12772;49.794;10.024;2024-03-29T13:00:00;2.95;;;1.67;;
24635;SDS011;12772;49.794;10.024;2024-03-29T13:04:04;1.42;;;1.33;;
24635;SDS011;12772;49.794;10.024;2024-03-29T13:08:10;1.52;;;1.40;;
24635;SDS011;12772;49.794;10.024;2024-03-29T13:12:12;1.98;;;1.50;;
24635;SDS011;12772;49.794;10.024;2024-03-29T13:16:14;2.80;;;2.08;;
24635;SDS011;12772;49.794;10.024;2024-03-29T13:20:17;2.75;;;1.50;;
24635;SDS011;12772;49.794;10.024;2024-03-29T13:24:20;5.60;;;3.35;;
24635;SDS011;12772;49.794;10.024;2024-03-29T13:28:22;2.83;;;1.83;;
24635;SDS011;12772;49.794;10.024;2024-03-29T13:32:24;1.88;;;1.48;;
24635;SDS011;12772;49.794;10.024;2024-03-29T13:36:27;3.22;;;2.83;;
24635;SDS011;12772;49.794;10.024;2024-03-29T13:40:29;5.97;;;5.38;;
24635;SDS011;12772;49.794;10.024;2024-03-29T13:44:32;2.70;;;2.50;;
24635;SDS011;12772;49.794;10.024;2024-03-29T13:48:35;1.75;;;1.65;;
24635;SDS011;12772;49.794;10.024;2024-03-29T13:52:37;2.55;;;2.35;;
24635;SDS011;12772;49.794;10.024;2024-03-29T13:56:39;1.58;;;1.48;;
24635;SDS011;12772;49.794;10.024;2024-03-29T14:00:41;4.38;;;3.63;;
24635;SDS011;12772;49.794;10.024;2024-03-29T14:04:44;5.90;;;5.30;;
24635;SDS011;12772;49.794;10.024;2024-03-29T14:08:46;6.80;;;6.10;;
24635;SDS011;12772;49.794;10.024;2024-03-29T14:12:49;9.88;;;8.93;;
24635;SDS011;12772;49.794;10.024;2024-03-29T14:16:53;8.20;;;7.40;;
24635;SDS011;12772;49.794;10.024;2024-03-29T14:20:55;11.48;;;9.32;;
24635;SDS011;12772;49.794;10.024;2024-03-29T14:24:57;6.30;;;5.70;;
24635;SDS011;12772;49.794;10.024;2024-03-29T14:28:59;4.63;;;4.22;;
24635;SDS011;12772;49.794;10.024;2024-03-29T14:33:01;3.75;;;3.45;;
24635;SDS011;12772;49.794;10.024;2024-03-29T14:37:06;4.10;;;3.67;;
24635;SDS011;12772;49.794;10.024;2024-03-29T14:41:13;41.55;;;38.05;;
24635;SDS011;12772;49.794;10.024;2024-03-29T14:45:15;15.98;;;14.77;;
24635;SDS011;12772;49.794;10.024;2024-03-29T14:49:17;5.20;;;4.80;;
24635;SDS011;12772;49.794;10.024;2024-03-29T14:53:20;4.30;;;3.90;;
24635;SDS011;12772;49.794;10.024;2024-03-29T14:57:23;3.85;;;3.55;;
24635;SDS011;12772;49.794;10.024;2024-03-29T15:01:25;3.35;;;2.83;;
24635;SDS011;12772;49.794;10.024;2024-03-29T15:05:27;3.78;;;2.80;;
24635;SDS011;12772;49.794;10.024;2024-03-29T15:09:29;2.63;;;2.42;;
24635;SDS011;12772;49.794;10.024;2024-03-29T15:13:31;3.45;;;3.00;;
24635;SDS011;12772;49.794;10.024;2024-03-29T15:17:33;2.35;;;2.15;;
24635;SDS011;12772;49.794;10.024;2024-03-29T15:21:35;2.03;;;1.90;;
24635;SDS011;12772;49.794;10.024;2024-03-29T15:25:39;2.92;;;2.00;;
24635;SDS011;12772;49.794;10.024;2024-03-29T15:29:43;1.80;;;1.70;;
24635;SDS011;12772;49.794;10.024;2024-03-29T15:33:45;2.10;;;1.88;;
24635;SDS011;12772;49.794;10.024;2024-03-29T15:37:48;2.67;;;2.47;;
24635;SDS011;12772;49.794;10.024;2024-03-29T15:41:50;3.20;;;2.90;;
24635;SDS011;12772;49.794;10.024;2024-03-29T15:45:52;3.08;;;2.72;;
24635;SDS011;12772;49.794;10.024;2024-03-29T15:49:56;3.03;;;2.47;;
24635;SDS011;12772;49.794;10.024;2024-03-29T15:53:58;2.50;;;2.30;;
24635;SDS011;12772;49.794;10.024;2024-03-29T15:58:02;2.20;;;2.00;;
24635;SDS011;12772;49.794;10.024;2024-03-29T16:02:04;5.35;;;2.75;;
24635;SDS011;12772;49.794;10.024;2024-03-29T16:06:06;2.97;;;2.70;;
24635;SDS011;12772;49.794;10.024;2024-03-29T16:10:08;2.95;;;2.25;;
24635;SDS011;12772;49.794;10.024;2024-03-29T16:14:10;3.53;;;2.55;;
24635;SDS011;12772;49.794;10.024;2024-03-29T16:18:12;2.63;;;2.42;;
24635;SDS011;12772;49.794;10.024;2024-03-29T16:22:15;2.10;;;2.00;;
24635;SDS011;12772;49.794;10.024;2024-03-29T16:26:17;3.97;;;3.58;;
24635;SDS011;12772;49.794;10.024;2024-03-29T16:30:19;8.40;;;7.25;;
24635;SDS011;12772;49.794;10.024;2024-03-29T16:34:21;3.58;;;2.67;;
24635;SDS011;12772;49.794;10.024;2024-03-29T16:38:23;3.70;;;2.90;;
24635;SDS011;12772;49.794;10.024;2024-03-29T16:42:25;2.05;;;1.95;;
24635;SDS011;12772;49.794;10.024;2024-03-29T16:46:27;4.57;;;2.35;;
24635;SDS011;12772;49.794;10.024;2024-03-29T16:50:29;2.20;;;2.10;;
24635;SDS011;12772;49.794;10.024;2024-03-29T16:54:31;7.60;;;6.80;;
24635;SDS011;12772;49.794;10.024;2024-03-29T16:58:33;8.55;;;6.38;;
24635;SDS011;12772;49.794;10.024;2024-03-29T17:02:35;7.18;;;6.22;;
24635;SDS011;12772;49.794;10.024;2024-03-29T17:06:40;14.27;;;13.05;;
24635;SDS011;12772;49.794;10.024;2024-03-29T17:10:41;17.15;;;15.55;;
24635;SDS011;12772;49.794;10.024;2024-03-29T17:14:43;8.55;;;7.75;;
24635;SDS011;12772;49.794;10.024;2024-03-29T17:18:46;13.93;;;12.82;;
24635;SDS011;12772;49.794;10.024;2024-03-29T17:22:48;8.50;;;7.70;;
24635;SDS011;12772;49.794;10.024;2024-03-29T17:26:50;6.50;;;5.82;;
24635;SDS011;12772;49.794;10.024;2024-03-29T17:30:52;6.43;;;5.82;;
24635;SDS011;12772;49.794;10.024;2024-03-29T17:34:54;5.00;;;4.35;;
24635;SDS011;12772;49.794;10.024;2024-03-29T17:38:56;5.43;;;5.03;;
24635;SDS011;12772;49.794;10.024;2024-03-29T17:42:58;4.03;;;3.67;;
24635;SDS011;12772;49.794;10.024;2024-03-29T17:47:00;3.60;;;3.30;;
24635;SDS011;12772;49.794;10.024;2024-03-29T17:51:03;3.50;;;3.25;;
24635;SDS011;12772;49.794;10.024;2024-03-29T17:55:06;5.80;;;4.85;;
24635;SDS011;12772;49.794;10.024;2024-03-29T17:59:08;4.70;;;4.30;;
24635;SDS011;12772;49.794;10.024;2024-03-29T18:03:10;6.28;;;5.78;;
24635;SDS011;12772;49.794;10.024;2024-03-29T18:07:12;5.07;;;4.60;;
24635;SDS011;12772;49.794;10.024;2024-03-29T18:11:14;4.50;;;4.10;;
24635;SDS011;12772;49.794;10.024;2024-03-29T18:15:17;6.75;;;4.78;;
24635;SDS011;12772;49.794;10.024;2024-03-29T18:19:19;5.32;;;4.85;;
24635;SDS011;12772;49.794;10.024;2024-03-29T18:23:21;4.30;;;4.00;;
24635;SDS011;12772;49.794;10.024;2024-03-29T18:27:23;8.25;;;7.45;;
24635;SDS011;12772;49.794;10.024;2024-03-29T18:31:25;8.82;;;7.28;;
24635;SDS011;12772;49.794;10.024;2024-03-29T18:35:27;8.88;;;7.82;;
24635;SDS011;12772;49.794;10.024;2024-03-29T18:39:29;8.18;;;7.47;;
24635;SDS011;12772;49.794;10.024;2024-03-29T18:43:31;8.73;;;7.93;;
24635;SDS011;12772;49.794;10.024;2024-03-29T18:47:33;7.95;;;7.25;;
24635;SDS011;12772;49.794;10.024;2024-03-29T18:51:35;7.55;;;6.85;;
24635;SDS011;12772;49.794;10.024;2024-03-29T18:55:37;7.32;;;6.75;;
24635;SDS011;12772;49.794;10.024;2024-03-29T18:59:39;6.40;;;5.90;;
24635;SDS011;12772;49.794;10.024;2024-03-29T19:03:41;6.00;;;5.50;;
24635;SDS011;12772;49.794;10.024;2024-03-29T19:07:43;5.80;;;4.80;;
24635;SDS011;12772;49.794;10.024;2024-03-29T19:11:45;4.82;;;4.43;;
24635;SDS011;12772;49.794;10.024;2024-03-29T19:15:52;4.60;;;4.07;;
24635;SDS011;12772;49.794;10.024;2024-03-29T19:19:54;4.65;;;3.80;;
24635;SDS011;12772;49.794;10.024;2024-03-29T19:23:56;4.82;;;4.40;;
24635;SDS011;12772;49.794;10.024;2024-03-29T19:27:59;5.00;;;4.60;;
24635;SDS011;12772;49.794;10.024;2024-03-29T19:32:01;5.15;;;4.75;;
24635;SDS011;12772;49.794;10.024;2024-03-29T19:36:03;10.77;;;8.88;;
24635;SDS011;12772;49.794;10.024;2024-03-29T19:40:07;10.85;;;9.50;;
24635;SDS011;12772;49.794;10.024;2024-03-29T19:44:09;11.48;;;9.77;;
24635;SDS011;12772;49.794;10.024;2024-03-29T19:48:11;11.88;;;8.63;;
24635;SDS011;12772;49.794;10.024;2024-03-29T19:52:13;8.82;;;7.93;;
24635;SDS011;12772;49.794;10.024;2024-03-29T19:56:15;7.80;;;6.93;;
24635;SDS011;12772;49.794;10.024;2024-03-29T20:00:19;7.32;;;6.28;;
24635;SDS011;12772;49.794;10.024;2024-03-29T20:04:21;7.00;;;6.30;;
24635;SDS011;12772;49.794;10.024;2024-03-29T20:08:23;8.55;;;6.70;;
24635;SDS011;12772;49.794;10.024;2024-03-29T20:12:25;6.97;;;5.75;;
24635;SDS011;12772;49.794;10.024;2024-03-29T20:16:27;6.28;;;5.65;;
24635;SDS011;12772;49.794;10.024;2024-03-29T20:20:29;6.85;;;5.85;;
24635;SDS011;12772;49.794;10.024;2024-03-29T20:24:31;6.15;;;5.65;;
24635;SDS011;12772;49.794;10.024;2024-03-29T20:28:34;5.38;;;4.88;;
24635;SDS011;12772;49.794;10.024;2024-03-29T20:32:36;6.88;;;5.63;;
24635;SDS011;12772;49.794;10.024;2024-03-29T20:36:37;6.70;;;4.93;;
24635;SDS011;12772;49.794;10.024;2024-03-29T20:40:39;5.90;;;5.15;;
24635;SDS011;12772;49.794;10.024;2024-03-29T20:44:45;5.95;;;5.35;;
24635;SDS011;12772;49.794;10.024;2024-03-29T20:48:47;7.80;;;5.30;;
24635;SDS011;12772;49.794;10.024;2024-03-29T20:52:52;6.47;;;5.88;;
24635;SDS011;12772;49.794;10.024;2024-03-29T20:56:58;6.90;;;5.47;;
24635;SDS011;12772;49.794;10.024;2024-03-29T21:01:00;5.97;;;5.35;;
24635;SDS011;12772;49.794;10.024;2024-03-29T21:05:02;5.18;;;4.68;;
24635;SDS011;12772;49.794;10.024;2024-03-29T21:09:22;5.97;;;5.20;;
24635;SDS011;12772;49.794;10.024;2024-03-29T21:13:24;9.00;;;6.95;;
24635;SDS011;12772;49.794;10.024;2024-03-29T21:17:26;12.93;;;9.55;;
24635;SDS011;12772;49.794;10.024;2024-03-29T21:21:28;14.88;;;10.27;;
24635;SDS011;12772;49.794;10.024;2024-03-29T21:25:31;14.48;;;9.32;;
24635;SDS011;12772;49.794;10.024;2024-03-29T21:29:34;11.52;;;8.88;;
24635;SDS011;12772;49.794;10.024;2024-03-29T21:33:36;14.05;;;8.52;;
24635;SDS011;12772;49.794;10.024;2024-03-29T21:37:40;8.23;;;7.22;;
24635;SDS011;12772;49.794;10.024;2024-03-29T21:41:42;9.13;;;6.45;;
24635;SDS011;12772;49.794;10.024;2024-03-29T21:45:47;8.05;;;6.05;;
24635;SDS011;12772;49.794;10.024;2024-03-29T21:49:49;5.82;;;5.25;;
24635;SDS011;12772;49.794;10.024;2024-03-29T21:53:51;5.90;;;5.40;;
24635;SDS011;12772;49.794;10.024;2024-03-29T21:57:53;7.60;;;6.80;;
24635;SDS011;12772;49.794;10.024;2024-03-29T22:01:55;6.88;;;6.18;;
24635;SDS011;12772;49.794;10.024;2024-03-29T22:05:57;7.30;;;6.07;;
24635;SDS011;12772;49.794;10.024;2024-03-29T22:09:59;6.47;;;5.88;;
24635;SDS011;12772;49.794;10.024;2024-03-29T22:14:02;6.85;;;6.22;;
24635;SDS011;12772;49.794;10.024;2024-03-29T22:18:04;6.40;;;5.80;;
24635;SDS011;12772;49.794;10.024;2024-03-29T22:22:06;6.78;;;5.55;;
24635;SDS011;12772;49.794;10.024;2024-03-29T22:26:08;6.60;;;6.00;;
24635;SDS011;12772;49.794;10.024;2024-03-29T22:30:10;9.38;;;8.48;;
24635;SDS011;12772;49.794;10.024;2024-03-29T22:34:12;29.13;;;23.15;;
24635;SDS011;12772;49.794;10.024;2024-03-29T22:38:14;41.05;;;33.33;;
24635;SDS011;12772;49.794;10.024;2024-03-29T22:42:17;48.38;;;38.22;;
24635;SDS011;12772;49.794;10.024;2024-03-29T22:46:19;45.30;;;37.20;;
24635;SDS011;12772;49.794;10.024;2024-03-29T22:50:21;42.55;;;34.38;;
24635;SDS011;12772;49.794;10.024;2024-03-29T22:54:22;32.15;;;26.10;;
24635;SDS011;12772;49.794;10.024;2024-03-29T22:58:24;24.88;;;20.95;;
24635;SDS011;12772;49.794;10.024;2024-03-29T23:02:26;21.88;;;18.17;;
24635;SDS011;12772;49.794;10.024;2024-03-29T23:06:28;16.63;;;14.80;;
24635;SDS011;12772;49.794;10.024;2024-03-29T23:10:30;13.30;;;11.90;;
24635;SDS011;12772;49.794;10.024;2024-03-29T23:14:32;11.18;;;10.07;;
24635;SDS011;12772;49.794;10.024;2024-03-29T23:18:34;12.25;;;11.05;;
24635;SDS011;12772;49.794;10.024;2024-03-29T23:22:36;10.18;;;9.18;;
24635;SDS011;12772;49.794;10.024;2024-03-29T23:26:39;8.43;;;7.60;;
24635;SDS011;12772;49.794;10.024;2024-03-29T23:30:42;7.30;;;6.65;;
24635;SDS011;12772;49.794;10.024;2024-03-29T23:34:45;7.53;;;6.82;;
24635;SDS011;12772;49.794;10.024;2024-03-29T23:38:46;8.07;;;7.32;;
24635;SDS011;12772;49.794;10.024;2024-03-29T23:42:49;7.05;;;6.43;;
24635;SDS011;12772;49.794;10.024;2024-03-29T23:46:51;10.00;;;9.00;;
24635;SDS011;12772;49.794;10.024;2024-03-29T23:50:54;8.75;;;7.85;;
24635;SDS011;12772;49.794;10.024;2024-03-29T23:55:00;7.63;;;6.93;;
24635;SDS011;12772;49.794;10.024;2024-03-29T23:59:03;6.30;;;5.70;;
